SWA720 KRDU-KBNA
Flight info
| Callsign | SWA720 |
|---|---|
| Flight time | N/A |
| Altitude | 38000 |
| Route | SHPRD4 SHPRD EDDDY SWFFT3 |
| Aircraft | B737/M-SDE2E3FGHIRWXY/LB1 |
Departure
| Time | 2026-05-08 01:28 |
|---|---|
| Airport | Raleigh-Durham International Airport (KRDU) |
Arrival
| Time | N/A |
|---|---|
| Airport | Nashville International Airport (KBNA) |
| Time | Latitude | Longitude | Altitude | Speed | Heading |
|---|---|---|---|---|---|
| 2026-05-08 01:05 | 35.87399 | -78.78958 | 423 ft | 0 kts | 301° |
| 2026-05-08 01:20 | 35.87397 | -78.78953 | 419 ft | 3 kts | 301° |
| 2026-05-08 01:20 | 35.87383 | -78.78925 | 415 ft | 4 kts | 299° |
| 2026-05-08 01:20 | 35.87370 | -78.78896 | 421 ft | 4 kts | 293° |
| 2026-05-08 01:21 | 35.87361 | -78.78865 | 423 ft | 4 kts | 282° |
| 2026-05-08 01:21 | 35.87359 | -78.78833 | 427 ft | 4 kts | 257° |
| 2026-05-08 01:21 | 35.87365 | -78.78813 | 429 ft | 0 kts | 225° |
| 2026-05-08 01:24 | 35.87363 | -78.78816 | 434 ft | 2 kts | 225° |
| 2026-05-08 01:25 | 35.87335 | -78.78851 | 423 ft | 11 kts | 225° |
| 2026-05-08 01:25 | 35.87247 | -78.78959 | 428 ft | 24 kts | 225° |
| 2026-05-08 01:25 | 35.87107 | -78.79132 | 430 ft | 32 kts | 225° |
| 2026-05-08 01:25 | 35.86949 | -78.79326 | 432 ft | 31 kts | 225° |
| 2026-05-08 01:26 | 35.86802 | -78.79508 | 425 ft | 29 kts | 225° |
| 2026-05-08 01:26 | 35.86664 | -78.79677 | 431 ft | 27 kts | 225° |
| 2026-05-08 01:26 | 35.86559 | -78.79807 | 436 ft | 20 kts | 225° |
| 2026-05-08 01:26 | 35.86543 | -78.79826 | 428 ft | 1 kts | 225° |
| 2026-05-08 01:27 | 35.86537 | -78.79834 | 432 ft | 2 kts | 225° |
| 2026-05-08 01:27 | 35.86529 | -78.79839 | 428 ft | 5 kts | 204° |
| 2026-05-08 01:27 | 35.86494 | -78.79787 | 433 ft | 10 kts | 88° |
| 2026-05-08 01:27 | 35.86490 | -78.79700 | 432 ft | 11 kts | 59° |
| 2026-05-08 01:28 | 35.86508 | -78.79677 | 428 ft | 9 kts | 42° |
| 2026-05-08 01:28 | 35.86773 | -78.79357 | 433 ft | 98 kts | 45° |
| 2026-05-08 01:28 | 35.87437 | -78.78551 | 541 ft | 159 kts | 44° |
| 2026-05-08 01:28 | 35.88219 | -78.77629 | 1613 ft | 148 kts | 41° |
| 2026-05-08 01:29 | 35.88919 | -78.76721 | 2604 ft | 151 kts | 43° |
| 2026-05-08 01:29 | 35.89680 | -78.75609 | 2980 ft | 189 kts | 44° |
| 2026-05-08 01:29 | 35.90603 | -78.74253 | 3264 ft | 223 kts | 44° |
| 2026-05-08 01:29 | 35.91665 | -78.72713 | 3625 ft | 252 kts | 45° |
| 2026-05-08 01:30 | 35.92452 | -78.71585 | 4188 ft | 261 kts | 45° |
| 2026-05-08 01:30 | 35.94057 | -78.69307 | 5453 ft | 274 kts | 45° |
| 2026-05-08 01:30 | 35.95425 | -78.67642 | 5851 ft | 277 kts | 29° |
| 2026-05-08 01:30 | 35.96590 | -78.66980 | 5991 ft | 272 kts | 11° |
| 2026-05-08 01:31 | 35.98438 | -78.66932 | 6034 ft | 266 kts | 342° |
| 2026-05-08 01:31 | 36.00069 | -78.67970 | 6805 ft | 264 kts | 316° |
| 2026-05-08 01:31 | 36.01169 | -78.69682 | 7972 ft | 256 kts | 292° |
| 2026-05-08 01:31 | 36.01595 | -78.71770 | 9109 ft | 251 kts | 270° |
| 2026-05-08 01:32 | 36.01341 | -78.73894 | 10139 ft | 252 kts | 252° |
| 2026-05-08 01:32 | 36.00735 | -78.75991 | 10746 ft | 271 kts | 250° |
| 2026-05-08 01:32 | 36.00007 | -78.78289 | 10955 ft | 301 kts | 249° |
| 2026-05-08 01:32 | 35.99197 | -78.80799 | 11160 ft | 328 kts | 249° |
| 2026-05-08 01:33 | 35.98324 | -78.83512 | 11392 ft | 350 kts | 249° |
| 2026-05-08 01:33 | 35.97414 | -78.86350 | 11987 ft | 358 kts | 250° |
| 2026-05-08 01:33 | 35.96499 | -78.89216 | 12784 ft | 360 kts | 250° |
| 2026-05-08 01:33 | 35.95582 | -78.92103 | 13616 ft | 362 kts | 250° |
| 2026-05-08 01:34 | 35.94662 | -78.95006 | 14324 ft | 364 kts | 250° |
| 2026-05-08 01:34 | 35.93735 | -78.97935 | 15006 ft | 368 kts | 251° |
| 2026-05-08 01:34 | 35.92801 | -79.00889 | 15698 ft | 370 kts | 251° |
| 2026-05-08 01:34 | 35.91873 | -79.03820 | 16376 ft | 373 kts | 251° |
| 2026-05-08 01:35 | 35.90925 | -79.06813 | 17015 ft | 376 kts | 251° |
| 2026-05-08 01:35 | 35.89967 | -79.09835 | 17565 ft | 381 kts | 252° |
| 2026-05-08 01:35 | 35.88997 | -79.12888 | 18174 ft | 383 kts | 252° |
| 2026-05-08 01:35 | 35.88023 | -79.15954 | 18717 ft | 384 kts | 252° |
| 2026-05-08 01:36 | 35.87045 | -79.19026 | 19320 ft | 383 kts | 252° |
| 2026-05-08 01:36 | 35.86073 | -79.22077 | 19914 ft | 382 kts | 252° |
| 2026-05-08 01:36 | 35.85100 | -79.25128 | 20493 ft | 382 kts | 252° |
| 2026-05-08 01:36 | 35.84156 | -79.28186 | 21023 ft | 381 kts | 255° |
| 2026-05-08 01:37 | 35.83486 | -79.31334 | 21514 ft | 380 kts | 260° |
| 2026-05-08 01:37 | 35.83152 | -79.34560 | 21991 ft | 379 kts | 265° |
| 2026-05-08 01:37 | 35.82931 | -79.37805 | 22444 ft | 380 kts | 265° |
| 2026-05-08 01:37 | 35.82701 | -79.41055 | 22872 ft | 381 kts | 265° |
| 2026-05-08 01:38 | 35.82464 | -79.44269 | 23245 ft | 382 kts | 265° |
| 2026-05-08 01:38 | 35.82217 | -79.47542 | 23542 ft | 385 kts | 265° |
| 2026-05-08 01:38 | 35.81966 | -79.50835 | 23871 ft | 385 kts | 265° |
| 2026-05-08 01:38 | 35.81679 | -79.54110 | 24231 ft | 384 kts | 262° |
| 2026-05-08 01:39 | 35.81182 | -79.57335 | 24569 ft | 384 kts | 260° |
| 2026-05-08 01:39 | 35.80626 | -79.60551 | 24866 ft | 384 kts | 259° |
| 2026-05-08 01:39 | 35.80058 | -79.63765 | 25132 ft | 384 kts | 259° |
| 2026-05-08 01:39 | 35.79492 | -79.66973 | 25400 ft | 383 kts | 260° |
| 2026-05-08 01:40 | 35.78931 | -79.70182 | 25639 ft | 383 kts | 260° |
| 2026-05-08 01:40 | 35.78372 | -79.73405 | 25832 ft | 384 kts | 260° |
| 2026-05-08 01:40 | 35.77818 | -79.76619 | 26007 ft | 384 kts | 260° |
| 2026-05-08 01:40 | 35.77269 | -79.79803 | 26189 ft | 383 kts | 260° |
| 2026-05-08 01:41 | 35.76717 | -79.83010 | 26408 ft | 382 kts | 260° |
| 2026-05-08 01:41 | 35.76165 | -79.86212 | 26675 ft | 380 kts | 260° |
| 2026-05-08 01:41 | 35.75616 | -79.89391 | 26971 ft | 378 kts | 261° |
| 2026-05-08 01:41 | 35.75070 | -79.92550 | 27299 ft | 375 kts | 261° |
| 2026-05-08 01:42 | 35.74528 | -79.95682 | 27646 ft | 372 kts | 261° |
| 2026-05-08 01:42 | 35.73989 | -79.98790 | 27996 ft | 370 kts | 261° |
| 2026-05-08 01:42 | 35.73460 | -80.01840 | 28359 ft | 367 kts | 261° |
| 2026-05-08 01:42 | 35.72928 | -80.04895 | 28745 ft | 364 kts | 261° |
| 2026-05-08 01:43 | 35.72399 | -80.07936 | 29132 ft | 361 kts | 261° |
| 2026-05-08 01:43 | 35.71874 | -80.10940 | 29538 ft | 358 kts | 261° |
| 2026-05-08 01:43 | 35.71355 | -80.13915 | 29991 ft | 354 kts | 262° |
| 2026-05-08 01:43 | 35.70837 | -80.16875 | 30386 ft | 352 kts | 261° |
| 2026-05-08 01:44 | 35.70323 | -80.19807 | 30771 ft | 349 kts | 261° |
| 2026-05-08 01:44 | 35.69811 | -80.22726 | 31102 ft | 349 kts | 261° |
| 2026-05-08 01:44 | 35.69300 | -80.25635 | 31398 ft | 349 kts | 261° |
| 2026-05-08 01:44 | 35.68788 | -80.28549 | 31716 ft | 348 kts | 261° |
| 2026-05-08 01:45 | 35.68276 | -80.31455 | 32074 ft | 347 kts | 260° |
| 2026-05-08 01:45 | 35.67765 | -80.34350 | 32446 ft | 346 kts | 260° |
| 2026-05-08 01:45 | 35.67255 | -80.37242 | 32804 ft | 345 kts | 260° |
| 2026-05-08 01:45 | 35.66744 | -80.40127 | 33155 ft | 344 kts | 260° |
| 2026-05-08 01:46 | 35.66240 | -80.42966 | 33503 ft | 344 kts | 260° |
| 2026-05-08 01:46 | 35.65847 | -80.45889 | 33855 ft | 342 kts | 264° |
| 2026-05-08 01:46 | 35.65692 | -80.48806 | 34148 ft | 341 kts | 268° |
| 2026-05-08 01:46 | 35.65734 | -80.51683 | 34405 ft | 342 kts | 272° |
| 2026-05-08 01:47 | 35.65962 | -80.54600 | 34702 ft | 341 kts | 273° |
| 2026-05-08 01:47 | 35.66216 | -80.57489 | 35058 ft | 339 kts | 273° |
| 2026-05-08 01:47 | 35.66475 | -80.60370 | 35310 ft | 339 kts | 274° |
| 2026-05-08 01:48 | 35.66989 | -80.66138 | 35730 ft | 339 kts | 274° |
| 2026-05-08 01:48 | 35.67242 | -80.69012 | 36010 ft | 338 kts | 274° |
| 2026-05-08 01:48 | 35.67493 | -80.71892 | 36257 ft | 337 kts | 274° |
| 2026-05-08 01:48 | 35.67740 | -80.74758 | 36483 ft | 337 kts | 274° |
| 2026-05-08 01:49 | 35.67983 | -80.77590 | 36723 ft | 337 kts | 274° |
| 2026-05-08 01:49 | 35.68228 | -80.80454 | 36944 ft | 337 kts | 274° |
| 2026-05-08 01:49 | 35.68472 | -80.83323 | 37174 ft | 336 kts | 274° |
| 2026-05-08 01:49 | 35.68716 | -80.86194 | 37408 ft | 336 kts | 274° |
| 2026-05-08 01:50 | 35.68958 | -80.89055 | 37626 ft | 335 kts | 274° |
| 2026-05-08 01:50 | 35.69198 | -80.91907 | 37905 ft | 334 kts | 274° |
| 2026-05-08 01:50 | 35.69673 | -80.97576 | 37999 ft | 335 kts | 274° |
| 2026-05-08 01:51 | 35.70147 | -81.03249 | 37993 ft | 332 kts | 274° |
| 2026-05-08 01:51 | 35.70615 | -81.08900 | 37991 ft | 331 kts | 274° |
| 2026-05-08 01:52 | 35.71079 | -81.14531 | 37981 ft | 331 kts | 274° |
| 2026-05-08 01:52 | 35.71542 | -81.20172 | 37959 ft | 331 kts | 274° |
| 2026-05-08 01:53 | 35.71998 | -81.25770 | 37967 ft | 331 kts | 274° |
| 2026-05-08 01:53 | 35.72455 | -81.31419 | 37976 ft | 331 kts | 274° |
| 2026-05-08 01:54 | 35.72791 | -81.37059 | 37975 ft | 330 kts | 270° |
| 2026-05-08 01:54 | 35.72810 | -81.42709 | 37975 ft | 330 kts | 270° |
| 2026-05-08 01:55 | 35.72808 | -81.48364 | 37971 ft | 330 kts | 270° |
| 2026-05-08 01:55 | 35.72814 | -81.54003 | 37974 ft | 329 kts | 270° |
| 2026-05-08 01:56 | 35.72826 | -81.59644 | 38028 ft | 329 kts | 270° |
| 2026-05-08 01:56 | 35.72838 | -81.65285 | 38027 ft | 330 kts | 270° |
| 2026-05-08 01:57 | 35.72850 | -81.70920 | 38030 ft | 328 kts | 270° |
| 2026-05-08 01:57 | 35.72859 | -81.76495 | 38008 ft | 327 kts | 270° |
| 2026-05-08 01:58 | 35.72865 | -81.82096 | 37999 ft | 327 kts | 270° |
| 2026-05-08 01:58 | 35.72870 | -81.87691 | 37993 ft | 326 kts | 270° |
| 2026-05-08 01:59 | 35.72871 | -81.93273 | 37979 ft | 326 kts | 270° |
| 2026-05-08 01:59 | 35.72870 | -81.98861 | 37978 ft | 326 kts | 270° |
| 2026-05-08 02:00 | 35.72867 | -82.04434 | 37974 ft | 326 kts | 270° |
| 2026-05-08 02:00 | 35.72861 | -82.09981 | 37976 ft | 326 kts | 270° |
| 2026-05-08 02:01 | 35.72852 | -82.15567 | 37980 ft | 326 kts | 270° |
| 2026-05-08 02:01 | 35.72841 | -82.21154 | 37976 ft | 325 kts | 270° |
| 2026-05-08 02:02 | 35.72827 | -82.26730 | 37981 ft | 325 kts | 270° |
| 2026-05-08 02:02 | 35.72810 | -82.32304 | 37981 ft | 326 kts | 270° |
| 2026-05-08 02:03 | 35.72791 | -82.37898 | 37974 ft | 327 kts | 270° |
| 2026-05-08 02:03 | 35.72769 | -82.43458 | 37984 ft | 327 kts | 269° |
| 2026-05-08 02:04 | 35.72746 | -82.49063 | 37978 ft | 328 kts | 269° |
| 2026-05-08 02:04 | 35.72719 | -82.54686 | 37996 ft | 329 kts | 269° |
| 2026-05-08 02:05 | 35.72689 | -82.60323 | 38014 ft | 329 kts | 269° |
| 2026-05-08 02:05 | 35.72657 | -82.65966 | 38004 ft | 329 kts | 269° |
| 2026-05-08 02:06 | 35.72622 | -82.71602 | 38012 ft | 329 kts | 269° |
| 2026-05-08 02:06 | 35.72584 | -82.77191 | 37970 ft | 328 kts | 269° |
| 2026-05-08 02:07 | 35.72541 | -82.82796 | 38011 ft | 327 kts | 269° |
| 2026-05-08 02:07 | 35.72501 | -82.88407 | 38021 ft | 328 kts | 269° |
| 2026-05-08 02:08 | 35.72456 | -82.94010 | 37990 ft | 328 kts | 269° |
| 2026-05-08 02:08 | 35.72409 | -82.99634 | 38021 ft | 329 kts | 269° |
| 2026-05-08 02:09 | 35.72359 | -83.05250 | 38018 ft | 330 kts | 269° |
| 2026-05-08 02:09 | 35.72305 | -83.10897 | 38020 ft | 329 kts | 269° |
| 2026-05-08 02:10 | 35.72249 | -83.16535 | 38032 ft | 329 kts | 269° |
| 2026-05-08 02:10 | 35.72189 | -83.22179 | 38027 ft | 329 kts | 269° |
| 2026-05-08 02:11 | 35.72129 | -83.27800 | 38002 ft | 329 kts | 269° |
| 2026-05-08 02:11 | 35.72066 | -83.33374 | 38003 ft | 328 kts | 269° |
| 2026-05-08 02:12 | 35.72001 | -83.38997 | 38015 ft | 329 kts | 269° |
| 2026-05-08 02:12 | 35.71932 | -83.44630 | 38039 ft | 329 kts | 269° |
| 2026-05-08 02:13 | 35.71861 | -83.50265 | 38043 ft | 329 kts | 269° |
| 2026-05-08 02:13 | 35.71787 | -83.55881 | 38052 ft | 328 kts | 269° |
| 2026-05-08 02:14 | 35.71710 | -83.61487 | 38035 ft | 328 kts | 269° |
| 2026-05-08 02:14 | 35.71631 | -83.67105 | 38019 ft | 328 kts | 269° |
| 2026-05-08 02:15 | 35.71549 | -83.72712 | 38040 ft | 327 kts | 269° |
| 2026-05-08 02:15 | 35.71465 | -83.78321 | 38039 ft | 327 kts | 269° |
| 2026-05-08 02:16 | 35.71378 | -83.83938 | 38024 ft | 328 kts | 269° |
| 2026-05-08 02:16 | 35.71289 | -83.89520 | 38030 ft | 329 kts | 269° |
| 2026-05-08 02:17 | 35.71197 | -83.95146 | 38039 ft | 329 kts | 269° |
| 2026-05-08 02:17 | 35.71117 | -83.99857 | 38036 ft | 329 kts | 269° |
| 2026-05-08 02:18 | 35.71021 | -84.05450 | 38038 ft | 329 kts | 269° |
| 2026-05-08 02:18 | 35.70921 | -84.11080 | 38036 ft | 329 kts | 269° |
| 2026-05-08 02:19 | 35.70819 | -84.16709 | 38031 ft | 329 kts | 269° |
| 2026-05-08 02:19 | 35.70713 | -84.22343 | 38029 ft | 329 kts | 269° |
| 2026-05-08 02:20 | 35.70606 | -84.27987 | 38022 ft | 329 kts | 269° |
| 2026-05-08 02:20 | 35.70496 | -84.33574 | 38023 ft | 329 kts | 269° |
| 2026-05-08 02:21 | 35.70383 | -84.39187 | 38046 ft | 328 kts | 269° |
| 2026-05-08 02:21 | 35.70268 | -84.44791 | 38048 ft | 327 kts | 269° |
| 2026-05-08 02:22 | 35.70151 | -84.50381 | 38045 ft | 326 kts | 269° |
| 2026-05-08 02:22 | 35.70031 | -84.55975 | 38047 ft | 327 kts | 269° |
| 2026-05-08 02:23 | 35.69909 | -84.61560 | 37849 ft | 328 kts | 269° |
| 2026-05-08 02:23 | 35.69846 | -84.64374 | 37198 ft | 326 kts | 268° |
| 2026-05-08 02:23 | 35.69784 | -84.67138 | 36637 ft | 321 kts | 268° |
| 2026-05-08 02:24 | 35.69722 | -84.69880 | 35935 ft | 319 kts | 268° |
| 2026-05-08 02:24 | 35.69659 | -84.72618 | 35145 ft | 320 kts | 268° |
| 2026-05-08 02:24 | 35.69595 | -84.75365 | 34341 ft | 322 kts | 268° |
| 2026-05-08 02:24 | 35.69531 | -84.78116 | 33484 ft | 322 kts | 268° |
| 2026-05-08 02:25 | 35.69465 | -84.80869 | 32604 ft | 322 kts | 268° |
| 2026-05-08 02:25 | 35.69400 | -84.83596 | 31770 ft | 323 kts | 268° |
| 2026-05-08 02:25 | 35.69334 | -84.86356 | 30945 ft | 322 kts | 269° |
| 2026-05-08 02:25 | 35.69267 | -84.89109 | 30136 ft | 322 kts | 268° |
| 2026-05-08 02:26 | 35.69200 | -84.91860 | 29067 ft | 323 kts | 269° |
| 2026-05-08 02:26 | 35.69131 | -84.94677 | 27660 ft | 334 kts | 269° |
| 2026-05-08 02:26 | 35.69058 | -84.97570 | 26649 ft | 338 kts | 269° |
| 2026-05-08 02:26 | 35.68985 | -85.00480 | 25749 ft | 341 kts | 269° |
| 2026-05-08 02:27 | 35.68911 | -85.03405 | 24890 ft | 345 kts | 269° |
| 2026-05-08 02:27 | 35.68834 | -85.06412 | 24068 ft | 362 kts | 269° |
| 2026-05-08 02:27 | 35.68753 | -85.09576 | 23090 ft | 381 kts | 269° |
| 2026-05-08 02:27 | 35.68666 | -85.12872 | 22023 ft | 379 kts | 269° |
| 2026-05-08 02:28 | 35.68581 | -85.16048 | 21089 ft | 373 kts | 269° |
| 2026-05-08 02:28 | 35.68469 | -85.19211 | 20195 ft | 368 kts | 266° |
| 2026-05-08 02:28 | 35.68084 | -85.22274 | 19965 ft | 360 kts | 261° |
| 2026-05-08 02:28 | 35.67534 | -85.25307 | 19780 ft | 362 kts | 260° |
| 2026-05-08 02:29 | 35.66980 | -85.28258 | 19593 ft | 348 kts | 260° |
| 2026-05-08 02:29 | 35.66444 | -85.31087 | 19454 ft | 330 kts | 260° |